createdAt,value
2023-01-05T00:02:24.881Z,101325.66
2023-01-05T00:07:28.122Z,101323.91
2023-01-05T00:12:49.672Z,101312.59
2023-01-05T00:18:11.403Z,101354.38
2023-01-05T00:23:14.560Z,101359.56
2023-01-05T00:28:17.690Z,101345.69
2023-01-05T00:33:20.738Z,101328.22
2023-01-05T00:38:23.878Z,101329.97
2023-01-05T00:43:26.921Z,101357.88
2023-01-05T00:48:30.017Z,101348.28
2023-01-05T00:53:33.122Z,101369.97
2023-01-05T00:58:36.140Z,101369.97
2023-01-05T01:03:39.574Z,101364.75
2023-01-05T01:08:42.843Z,101372.56
2023-01-05T01:13:46.327Z,101368.22
2023-01-05T01:18:50.215Z,101345.56
2023-01-05T01:23:53.772Z,101354.28
2023-01-05T01:29:01.653Z,101376.91
2023-01-05T01:34:05.781Z,101368.19
2023-01-05T01:39:09.067Z,101361.22
2023-01-05T01:44:48.521Z,101375.16
2023-01-05T01:49:55.743Z,101369.91
2023-01-05T01:55:00.416Z,101355.06
2023-01-05T02:00:07.005Z,101369.03
2023-01-05T02:05:32.617Z,101375.94
2023-01-05T02:10:57.028Z,101383.78
2023-01-05T02:16:06.091Z,101373.38
2023-01-05T02:27:05.880Z,101388.13
2023-01-05T02:32:27.419Z,101394.25
2023-01-05T02:37:41.202Z,101384.50
2023-01-05T02:42:46.196Z,101393.28
2023-01-05T02:47:50.243Z,101376.66
2023-01-05T02:53:28.836Z,101401.94
2023-01-05T02:58:40.697Z,101411.41
2023-01-05T03:03:54.415Z,101422.78
2023-01-05T03:09:02.557Z,101420.09
2023-01-05T03:14:23.933Z,101429.78
2023-01-05T03:19:41.695Z,101410.59
2023-01-05T03:25:07.259Z,101408.81
2023-01-05T03:30:32.725Z,101423.53
2023-01-05T03:35:42.760Z,101431.41
2023-01-05T03:40:47.233Z,101433.19
2023-01-05T03:45:57.028Z,101430.53
2023-01-05T03:51:03.370Z,101439.22
2023-01-05T03:56:06.885Z,101448.88
2023-01-05T04:01:10.962Z,101441.03
2023-01-05T04:06:15.111Z,101432.19
2023-01-05T04:11:20.875Z,101450.53
2023-01-05T04:16:31.493Z,101454.88
2023-01-05T04:21:38.366Z,101453.13
2023-01-05T04:26:43.017Z,101432.19
2023-01-05T04:31:46.977Z,101459.19
2023-01-05T04:36:50.150Z,101460.94
2023-01-05T04:41:56.598Z,101447.03
2023-01-05T04:46:59.897Z,101443.44
2023-01-05T04:52:03.172Z,101458.34
2023-01-05T04:57:09.915Z,101460.09
2023-01-05T05:02:15.576Z,101451.44
2023-01-05T05:07:20.787Z,101455.75
2023-01-05T05:12:24.593Z,101460.97
2023-01-05T05:17:31.724Z,101449.63
2023-01-05T05:22:35.079Z,101465.28
2023-01-05T05:27:39.606Z,101460.91
2023-01-05T05:32:44.576Z,101472.22
2023-01-05T05:37:52.851Z,101446.88
2023-01-05T05:42:59.177Z,101456.53
2023-01-05T05:48:02.295Z,101457.44
2023-01-05T05:53:05.363Z,101471.50
2023-01-05T05:58:16.694Z,101468.00
2023-01-05T06:03:19.872Z,101471.47
2023-01-05T06:08:24.333Z,101442.78
2023-01-05T06:13:27.503Z,101455.88
2023-01-05T06:18:30.603Z,101456.78
2023-01-05T06:23:33.736Z,101463.75
2023-01-05T06:28:36.861Z,101477.78
2023-01-05T06:33:42.779Z,101472.56
2023-01-05T06:38:46.133Z,101476.97
2023-01-05T06:43:49.225Z,101456.88
2023-01-05T06:48:52.375Z,101477.00
2023-01-05T06:53:55.475Z,101477.94
2023-01-05T06:58:58.617Z,101466.59
2023-01-05T07:04:01.917Z,101447.47
2023-01-05T07:09:05.094Z,101448.38
2023-01-05T07:14:08.238Z,101449.25
2023-01-05T07:19:11.444Z,101452.75
2023-01-05T07:24:14.555Z,101467.56
2023-01-05T07:29:17.941Z,101440.56
2023-01-05T07:34:22.177Z,101451.91
2023-01-05T07:39:25.236Z,101471.09
2023-01-05T07:44:33.702Z,101454.50
2023-01-05T07:49:41.709Z,101462.31
2023-01-05T07:54:45.619Z,101455.38
2023-01-05T07:59:48.739Z,101432.72
2023-01-05T08:04:51.833Z,101453.66
2023-01-05T08:10:13.514Z,101440.56
2023-01-05T08:15:17.003Z,101411.78
2023-01-05T08:20:20.077Z,101416.22
2023-01-05T08:25:23.154Z,101413.59
2023-01-05T08:30:26.461Z,101409.25
2023-01-05T08:35:29.735Z,101384.84
2023-01-05T08:40:32.804Z,101412.72
2023-01-05T08:45:35.983Z,101390.94
2023-01-05T08:50:39.090Z,101377.00
2023-01-05T08:55:42.178Z,101390.09
2023-01-05T09:00:45.617Z,101368.31
2023-01-05T09:05:49.086Z,101354.38
2023-01-05T09:10:52.168Z,101362.22
2023-01-05T09:15:55.199Z,101341.31
2023-01-05T09:20:58.880Z,101345.69
2023-01-05T09:26:04.952Z,101318.69
2023-01-05T09:31:13.077Z,101316.97
2023-01-05T09:36:18.208Z,101310.84
2023-01-05T09:41:49.065Z,101332.63
2023-01-05T09:46:54.616Z,101320.41
2023-01-05T09:52:09.613Z,101313.47
2023-01-05T09:57:23.007Z,101306.50
2023-01-05T10:02:30.094Z,101303.00
2023-01-05T10:13:04.356Z,101284.69
2023-01-05T10:18:22.245Z,101275.13
2023-01-05T10:24:18.698Z,101276.00
2023-01-05T10:29:36.709Z,101285.56
2023-01-05T10:34:56.444Z,101281.25
2023-01-05T10:40:11.105Z,101277.75
2023-01-05T10:45:16.818Z,101269.94
2023-01-05T10:50:36.189Z,101271.66
2023-01-05T10:56:02.054Z,101272.53
2023-01-05T11:01:15.122Z,101249.91
2023-01-05T11:06:22.451Z,101271.66
2023-01-05T11:11:26.943Z,101249.06
2023-01-05T11:16:33.070Z,101244.63
2023-01-05T11:21:36.081Z,101243.78
2023-01-05T11:26:49.327Z,101221.13
2023-01-05T11:32:08.386Z,101246.44
2023-01-05T11:37:31.517Z,101230.78
2023-01-05T11:42:42.888Z,101242.94
2023-01-05T11:53:06.082Z,101199.44
2023-01-05T11:58:26.576Z,101212.50
2023-01-05T12:03:41.431Z,101209.88
2023-01-05T12:08:58.570Z,101204.66
2023-01-05T12:14:16.395Z,101215.09
2023-01-05T12:19:54.602Z,101219.44
2023-01-05T12:25:06.941Z,101215.97
2023-01-05T12:32:19.677Z,101213.34
2023-01-05T12:36:11.582Z,101213.38
2023-01-05T12:41:35.667Z,101205.50
2023-01-05T12:46:55.897Z,101217.69
2023-01-05T12:52:14.802Z,101202.94
2023-01-05T12:57:39.914Z,101196.81
2023-01-05T13:02:55.843Z,101200.31
2023-01-05T13:08:17.909Z,101194.22
2023-01-05T13:13:30.709Z,101182.06
2023-01-05T13:18:37.610Z,101185.53
2023-01-05T13:23:51.067Z,101189.00
2023-01-05T13:28:58.929Z,101175.09
2023-01-05T13:34:28.539Z,101175.97
2023-01-05T13:39:44.618Z,101178.56
2023-01-05T13:44:56.561Z,101166.38
2023-01-05T13:55:53.288Z,101144.56
2023-01-05T14:00:56.790Z,101122.78
2023-01-05T14:06:02.994Z,101116.69
2023-01-05T14:11:15.256Z,101104.53
2023-01-05T14:16:37.807Z,101127.13
2023-01-05T14:21:54.774Z,101121.88
2023-01-05T14:27:10.790Z,101122.72
2023-01-05T14:32:44.841Z,101120.16
2023-01-05T14:37:50.909Z,101106.31
2023-01-05T14:42:54.954Z,101076.75
2023-01-05T14:48:03.306Z,101084.59
2023-01-05T14:53:35.280Z,101071.59
2023-01-05T14:58:41.658Z,101054.22
2023-01-05T15:03:47.402Z,101047.22
2023-01-05T15:09:09.009Z,101044.59
2023-01-05T15:14:35.676Z,101028.97
2023-01-05T15:19:41.319Z,101038.50
2023-01-05T15:25:02.389Z,101022.91
2023-01-05T15:30:24.051Z,101009.84
2023-01-05T15:35:55.535Z,100995.06
2023-01-05T15:41:06.990Z,101003.78
2023-01-05T15:46:10.938Z,100990.75
2023-01-05T15:51:32.312Z,100992.50
2023-01-05T15:56:40.054Z,100988.16
2023-01-05T16:01:43.180Z,100971.66
2023-01-05T16:06:49.739Z,100972.53
2023-01-05T16:11:58.929Z,100943.88
2023-01-05T16:17:16.083Z,100968.22
2023-01-05T16:22:30.735Z,100972.56
2023-01-05T16:27:40.034Z,100947.38
2023-01-05T16:32:43.412Z,100957.78
2023-01-05T16:37:47.010Z,100953.44
2023-01-05T16:42:50.749Z,100956.06
2023-01-05T16:47:54.033Z,100933.50
2023-01-05T16:52:57.179Z,100943.00
2023-01-05T16:58:01.096Z,100916.97
2023-01-05T17:03:24.101Z,100889.19
2023-01-05T17:08:30.863Z,100890.94
2023-01-05T17:13:41.923Z,100871.84
2023-01-05T17:18:45.359Z,100857.94
2023-01-05T17:23:54.697Z,100863.13
2023-01-05T17:39:27.186Z,100837.09
2023-01-05T17:44:30.933Z,100804.16
2023-01-05T17:49:34.012Z,100788.50
2023-01-05T17:54:37.088Z,100768.53
2023-01-05T18:10:14.175Z,100760.72
2023-01-05T18:15:18.147Z,100736.44
2023-01-05T18:20:21.530Z,100732.97
2023-01-05T18:25:25.256Z,100726.00
2023-01-05T18:30:28.833Z,100719.94
2023-01-05T18:35:36.145Z,100710.34
2023-01-05T18:40:40.641Z,100699.09
2023-01-05T18:45:43.879Z,100650.44
2023-01-05T18:50:51.351Z,100653.94
2023-01-05T18:55:54.676Z,100639.16
2023-01-05T19:00:57.746Z,100652.16
2023-01-05T19:06:05.240Z,100644.28
2023-01-05T19:11:18.853Z,100621.81
2023-01-05T19:16:24.189Z,100609.66
2023-01-05T19:21:30.667Z,100626.97
2023-01-05T19:26:34.298Z,100601.00
2023-01-05T19:31:38.017Z,100594.13
2023-01-05T19:36:41.552Z,100594.97
2023-01-05T19:41:46.800Z,100572.41
2023-01-05T19:46:53.525Z,100546.50
2023-01-05T19:57:16.941Z,100542.16
2023-01-05T20:02:20.035Z,100530.06
2023-01-05T20:07:23.093Z,100511.81
2023-01-05T20:12:26.188Z,100498.84
2023-01-05T20:17:29.424Z,100469.41
2023-01-05T20:22:32.521Z,100435.63
2023-01-05T20:27:35.625Z,100462.50
2023-01-05T20:32:39.018Z,100439.09
2023-01-05T20:37:42.093Z,100445.97
2023-01-05T20:42:45.221Z,100430.47
2023-01-05T20:48:03.480Z,100396.66
2023-01-05T20:53:06.539Z,100387.09
2023-01-05T20:58:09.607Z,100370.59
2023-01-05T21:03:13.098Z,100353.97
2023-01-05T21:08:16.214Z,100342.72
2023-01-05T21:13:31.480Z,100333.06
2023-01-05T21:18:35.960Z,100312.19
2023-01-05T21:23:39.403Z,100305.13
2023-01-05T21:28:43.033Z,100305.03
2023-01-05T21:33:46.841Z,100293.63
2023-01-05T21:39:01.485Z,100275.41
2023-01-05T21:44:07.624Z,100249.53
2023-01-05T21:49:16.280Z,100252.09
2023-01-05T21:54:38.824Z,100226.91
2023-01-05T22:05:08.894Z,100188.50
2023-01-05T22:10:16.713Z,100193.38
2023-01-05T22:15:23.408Z,100171.88
2023-01-05T22:20:26.452Z,100196.81
2023-01-05T22:25:29.761Z,100177.63
2023-01-05T22:30:33.267Z,100167.16
2023-01-05T22:35:40.543Z,100134.19
2023-01-05T22:40:43.679Z,100155.06
2023-01-05T22:45:46.743Z,100120.53
2023-01-05T22:50:49.839Z,100097.81
2023-01-05T22:55:52.967Z,100121.00
2023-01-05T23:00:56.060Z,100093.00
2023-01-05T23:05:59.135Z,100066.41
2023-01-05T23:11:11.588Z,100061.91
2023-01-05T23:16:15.500Z,100054.03
2023-01-05T23:21:20.319Z,100059.81
2023-01-05T23:26:24.989Z,100035.41
2023-01-05T23:31:28.467Z,100047.53
2023-01-05T23:36:40.303Z,100036.22
2023-01-05T23:41:43.542Z,100041.28
2023-01-05T23:46:46.645Z,100006.53
2023-01-05T23:51:49.724Z,100015.88
2023-01-05T23:56:52.783Z,100015.72
